Manitowoc, WI

7:41 PM CDT on September 30, 2014 (GMT -0500)
Manitowoc County | Change Station
CLOSE
Current Station
Airport
Location: Manitowoc,
Elevation: 650 ft
Nearby Weather Stations

Elev 650 ft 44.13 °N, 87.68 °W | Updated 4 days ago

Overcast
Overcast
47 °F
Feels Like 47 °F
N
5
Wind Variable Wind from NE
Gusts 9 mph

Today
High -- | Low -- °F
--% Chance of Precip.
Yesterday
High -- | Low -- °F
Precip. -- in
6:47 AM 6:33 PM
Waxing Crescent, 41% visible
Pressure 30.26 in
Visibility 1.5 miles
Clouds Clear
Dew Point 46 °F
Humidity 93%
Rainfall 0.00 in
Snow Depth Not available.
UV 0 out of 12
Pollen 2.00 out of 12
Air Quality Not available.
Flu Activity Not available.
SPECI KMTW 261028Z AUTO 34003KT 1 1/2SM BR CLR 08/08 A3026 RMK AO2

More Conditions Fewer Conditions

Pressure 30.26 in
Visibility 1.5 miles
Clouds Clear
Dew Point 46 °F
Humidity 93%
Rainfall 0.00 in
Snow Depth Not available.
UV 0 out of 12
Pollen 2.00 out of 12
Air Quality Not available.
Flu Activity Not available.
SPECI KMTW 261028Z AUTO 34003KT 1 1/2SM BR CLR 08/08 A3026 RMK AO2

More Conditions Fewer Conditions

10-Day Weather Forecast

Almanac

Astronomy

Sep. 30, 2014 Rise Set
Actual Time 6:47 AM CDT 6:33 PM CDT
Civil Twilight 6:18 AM CDT 7:02 PM CDT
Nautical Twilight 5:44 AM CDT 7:35 PM CDT
Astronomical Twilight 5:10 AM CDT 8:09 PM CDT
Moon 1:04 PM CDT (9/30) 10:53 PM CDT (9/30)
Length of Visible Light 12h 43m
Length of Day
11h 46m
Tomorrow will be 3m 1s shorter.
Waxing Crescent, 41% of the Moon is Illuminated
Today
Waxing Crescent
Oct 1
First Quarter
Oct 8
Full
Oct 15
Last Quarter
Oct 23
New

Today's Extremes

State Highs State Lows

Community

WunderPhotos

Upload Photos

1,757,801 photos uploaded!

Nearby

Snow Depth

Station Depth Elevation
No new snow has been reported.

Earthquake Activity

City Distance Mag. Time & Date
No recent earthquake activity has been reported nearby.
Minimum magnitude displayed is 2.5.

Coastal Water Temperatures

Place Temperature
Menominee, MI 62.1 °F

Nearby Weather Stations